createdAt,value
2022-07-30T00:03:19.986Z,7.68
2022-07-30T00:07:42.037Z,7.35
2022-07-30T00:12:06.454Z,7.28
2022-07-30T00:16:29.015Z,7.68
2022-07-30T00:20:50.931Z,7.43
2022-07-30T00:25:14.093Z,7.40
2022-07-30T00:29:36.232Z,8.13
2022-07-30T00:34:07.212Z,7.68
2022-07-30T00:38:29.473Z,7.60
2022-07-30T00:42:51.351Z,8.45
2022-07-30T00:47:13.451Z,7.13
2022-07-30T00:51:35.893Z,7.65
2022-07-30T00:55:58.151Z,8.23
2022-07-30T01:00:21.753Z,8.02
2022-07-30T01:04:45.072Z,8.80
2022-07-30T01:09:08.455Z,8.35
2022-07-30T01:13:30.353Z,7.88
2022-07-30T01:17:53.712Z,8.27
2022-07-30T01:22:31.223Z,8.50
2022-07-30T01:26:55.373Z,8.20
2022-07-30T01:31:19.209Z,8.98
2022-07-30T01:35:44.711Z,9.00
2022-07-30T01:40:08.997Z,8.82
2022-07-30T01:44:32.311Z,8.50
2022-07-30T01:48:54.720Z,8.52
2022-07-30T01:53:22.796Z,8.65
2022-07-30T01:57:50.211Z,8.40
2022-07-30T02:02:12.211Z,8.07
2022-07-30T02:06:58.329Z,8.18
2022-07-30T02:11:40.472Z,8.30
2022-07-30T02:16:09.277Z,8.50
2022-07-30T02:20:33.883Z,8.55
2022-07-30T02:25:01.293Z,8.02
2022-07-30T02:29:25.454Z,8.20
2022-07-30T02:33:52.971Z,8.63
2022-07-30T02:38:17.911Z,9.75
2022-07-30T02:42:40.792Z,9.77
2022-07-30T02:47:05.167Z,10.25
2022-07-30T02:51:48.751Z,10.45
2022-07-30T02:56:11.712Z,11.20
2022-07-30T03:00:35.559Z,11.00
2022-07-30T03:05:00.146Z,12.43
2022-07-30T03:09:22.715Z,11.27
2022-07-30T03:13:46.851Z,10.50
2022-07-30T03:18:13.334Z,10.57
2022-07-30T03:22:42.534Z,12.15
2022-07-30T03:27:07.211Z,11.20
2022-07-30T03:31:36.244Z,12.35
2022-07-30T03:36:02.031Z,13.50
2022-07-30T03:40:25.391Z,14.77
2022-07-30T03:44:48.493Z,13.98
2022-07-30T03:49:11.909Z,15.00
2022-07-30T03:53:40.571Z,15.43
2022-07-30T03:58:35.933Z,14.27
2022-07-30T04:03:00.791Z,14.63
2022-07-30T04:07:23.700Z,16.02
2022-07-30T04:11:46.180Z,16.17
2022-07-30T04:16:41.483Z,17.13
2022-07-30T04:21:16.206Z,16.48
2022-07-30T04:25:42.551Z,16.73
2022-07-30T04:30:05.784Z,17.85
2022-07-30T04:34:30.234Z,16.25
2022-07-30T04:38:52.492Z,16.92
2022-07-30T04:43:16.831Z,16.50
2022-07-30T04:47:39.352Z,18.25
2022-07-30T04:52:35.291Z,18.10
2022-07-30T04:56:59.372Z,18.70
2022-07-30T05:01:34.047Z,18.67
2022-07-30T05:06:03.772Z,18.25
2022-07-30T05:10:30.832Z,19.60
2022-07-30T05:14:53.373Z,18.27
2022-07-30T05:19:16.131Z,20.00
2022-07-30T05:23:40.736Z,21.23
2022-07-30T05:28:23.083Z,18.85
2022-07-30T05:32:46.490Z,19.15
2022-07-30T05:37:10.058Z,20.25
2022-07-30T05:41:34.972Z,19.30
2022-07-30T05:46:01.406Z,17.98
2022-07-30T05:50:24.353Z,17.25
2022-07-30T05:54:46.632Z,16.20
2022-07-30T05:59:27.993Z,16.63
2022-07-30T06:04:10.308Z,15.43
2022-07-30T06:08:42.714Z,14.82
2022-07-30T06:13:04.773Z,16.17
2022-07-30T06:17:28.278Z,16.83
2022-07-30T06:22:24.154Z,15.73
2022-07-30T06:26:48.372Z,17.23
2022-07-30T06:31:16.727Z,17.30
2022-07-30T06:35:38.652Z,16.75
2022-07-30T06:40:00.655Z,17.45
2022-07-30T06:44:22.834Z,17.00
2022-07-30T06:49:04.897Z,17.38
2022-07-30T06:53:28.008Z,17.65
2022-07-30T06:58:05.395Z,17.67
2022-07-30T07:03:03.292Z,16.38
2022-07-30T07:07:41.147Z,17.33
2022-07-30T07:12:07.052Z,16.55
2022-07-30T07:16:29.102Z,18.80
2022-07-30T07:20:52.372Z,16.83
2022-07-30T07:25:14.592Z,15.65
2022-07-30T07:29:37.253Z,16.75
2022-07-30T07:34:02.620Z,14.75
2022-07-30T07:38:25.252Z,17.02
2022-07-30T07:42:49.513Z,16.83
2022-07-30T07:47:14.893Z,15.63
2022-07-30T07:51:48.208Z,15.80
2022-07-30T07:56:14.396Z,14.40
2022-07-30T08:00:37.754Z,13.75
2022-07-30T08:05:00.233Z,14.25
2022-07-30T08:09:22.333Z,13.63
2022-07-30T08:14:07.485Z,15.05
2022-07-30T08:18:52.642Z,15.50
2022-07-30T08:23:23.652Z,16.60
2022-07-30T08:27:46.214Z,15.25
2022-07-30T08:32:08.648Z,15.27
2022-07-30T08:36:33.432Z,14.98
2022-07-30T08:40:56.632Z,15.85
2022-07-30T08:45:19.672Z,15.65
2022-07-30T08:50:08.932Z,12.02
2022-07-30T08:54:42.181Z,11.80
2022-07-30T08:59:04.852Z,12.00
2022-07-30T09:03:27.092Z,12.20
2022-07-30T09:07:52.671Z,11.15
2022-07-30T09:12:40.412Z,10.88
2022-07-30T09:17:03.004Z,9.55
2022-07-30T09:21:32.152Z,7.65
2022-07-30T09:26:08.576Z,6.78
2022-07-30T09:30:54.153Z,7.00
2022-07-30T09:35:34.864Z,6.93
2022-07-30T09:40:18.792Z,7.57
2022-07-30T09:45:15.352Z,7.63
2022-07-30T09:49:42.049Z,7.80
2022-07-30T09:54:09.611Z,7.25
2022-07-30T09:58:45.460Z,7.30
2022-07-30T10:03:42.326Z,6.38
2022-07-30T10:08:52.052Z,5.93
2022-07-30T10:13:20.537Z,6.72
2022-07-30T10:17:45.672Z,5.82
2022-07-30T10:22:36.249Z,6.18
2022-07-30T10:27:17.593Z,6.43
2022-07-30T10:31:54.362Z,6.90
2022-07-30T10:36:18.372Z,6.70
2022-07-30T10:41:01.713Z,5.72
2022-07-30T10:45:46.406Z,5.50
2022-07-30T10:50:16.351Z,5.60
2022-07-30T10:54:39.554Z,5.63
2022-07-30T10:59:08.834Z,5.75
2022-07-30T11:03:40.123Z,5.18
2022-07-30T11:08:37.253Z,4.80
2022-07-30T11:13:07.494Z,5.15
2022-07-30T11:18:03.411Z,5.28
2022-07-30T11:22:33.033Z,5.80
2022-07-30T11:26:55.192Z,5.53
2022-07-30T11:31:56.414Z,5.03
2022-07-30T11:36:21.010Z,5.15
2022-07-30T11:40:46.212Z,4.93
2022-07-30T11:45:29.804Z,4.88
2022-07-30T11:49:52.851Z,4.25
2022-07-30T11:54:16.031Z,4.35
2022-07-30T11:58:40.233Z,4.03
2022-07-30T12:03:12.778Z,4.35
2022-07-30T12:07:35.451Z,4.38
2022-07-30T12:11:58.037Z,4.22
2022-07-30T12:16:20.031Z,3.80
2022-07-30T12:20:42.736Z,3.60
2022-07-30T12:25:09.432Z,3.92
2022-07-30T12:29:32.493Z,3.58
2022-07-30T12:33:58.314Z,3.90
2022-07-30T12:38:23.799Z,3.88
2022-07-30T12:42:55.111Z,3.35
2022-07-30T12:47:26.755Z,4.28
2022-07-30T12:51:59.871Z,4.20
2022-07-30T12:56:32.012Z,3.75
2022-07-30T13:00:55.443Z,4.70
2022-07-30T13:05:18.112Z,4.22
2022-07-30T13:09:40.612Z,4.30
2022-07-30T13:14:02.750Z,4.38
2022-07-30T13:18:24.592Z,4.00
2022-07-30T13:22:46.751Z,5.13
2022-07-30T13:27:09.018Z,4.63
2022-07-30T13:31:42.442Z,3.78
2022-07-30T13:36:06.491Z,4.32
2022-07-30T13:40:32.308Z,4.75
2022-07-30T13:44:54.391Z,5.00
2022-07-30T13:49:16.809Z,5.18
2022-07-30T13:53:38.831Z,5.40
2022-07-30T13:58:01.631Z,5.68
2022-07-30T14:02:23.632Z,5.57
2022-07-30T14:06:45.855Z,5.38
2022-07-30T14:11:08.413Z,5.38
2022-07-30T14:15:33.351Z,5.90
2022-07-30T14:19:56.213Z,5.68
2022-07-30T14:24:18.292Z,5.90
2022-07-30T14:28:40.373Z,5.45
2022-07-30T14:33:04.620Z,5.20
2022-07-30T14:37:27.451Z,5.90
2022-07-30T14:41:52.365Z,5.53
2022-07-30T14:46:18.353Z,5.63
2022-07-30T14:50:57.260Z,4.75
2022-07-30T14:55:22.973Z,4.78
2022-07-30T14:59:45.032Z,4.57
2022-07-30T15:04:09.672Z,5.15
2022-07-30T15:08:32.011Z,5.03
2022-07-30T15:12:54.332Z,4.18
2022-07-30T15:17:17.011Z,3.83
2022-07-30T15:21:39.331Z,4.25
2022-07-30T15:26:01.032Z,3.97
2022-07-30T15:30:24.862Z,3.78
2022-07-30T15:34:47.111Z,4.20
2022-07-30T15:39:09.291Z,3.70
2022-07-30T15:43:32.852Z,3.88
2022-07-30T15:47:55.988Z,4.07
2022-07-30T15:52:18.252Z,4.10
2022-07-30T15:56:40.412Z,4.03
2022-07-30T16:01:05.437Z,3.78
2022-07-30T16:05:27.664Z,3.33
2022-07-30T16:10:10.413Z,4.03
2022-07-30T16:14:32.397Z,3.78
2022-07-30T16:18:54.813Z,4.20
2022-07-30T16:23:21.239Z,4.68
2022-07-30T16:27:44.151Z,4.28
2022-07-30T16:32:06.652Z,3.50
2022-07-30T16:36:29.132Z,4.30
2022-07-30T16:40:51.091Z,3.95
2022-07-30T16:45:13.111Z,3.63
2022-07-30T16:49:35.349Z,4.50
2022-07-30T16:53:57.930Z,4.10
2022-07-30T16:58:21.325Z,4.95
2022-07-30T17:02:45.451Z,4.88
2022-07-30T17:07:07.437Z,4.38
2022-07-30T17:11:47.807Z,4.80
2022-07-30T17:16:11.634Z,4.22
2022-07-30T17:20:34.352Z,4.30
2022-07-30T17:24:56.313Z,4.55
2022-07-30T17:29:18.331Z,4.72
2022-07-30T17:33:40.413Z,5.10
2022-07-30T17:38:02.672Z,5.95
2022-07-30T17:42:26.383Z,5.80
2022-07-30T17:46:48.391Z,8.43
2022-07-30T17:51:10.533Z,5.35
2022-07-30T17:55:35.450Z,5.57
2022-07-30T17:59:58.093Z,4.93
2022-07-30T18:04:20.135Z,5.40
2022-07-30T18:08:42.092Z,5.20
2022-07-30T18:13:16.610Z,4.95
2022-07-30T18:17:46.691Z,5.28
2022-07-30T18:22:09.013Z,9.45
2022-07-30T18:26:36.812Z,5.35
2022-07-30T18:30:58.994Z,5.47
2022-07-30T18:35:21.744Z,5.78
2022-07-30T18:39:43.712Z,5.25
2022-07-30T18:44:05.614Z,5.88
2022-07-30T18:48:27.755Z,6.18
2022-07-30T18:52:50.952Z,5.82
2022-07-30T18:57:14.567Z,7.10
2022-07-30T19:01:39.336Z,6.25
2022-07-30T19:06:01.611Z,7.32
2022-07-30T19:10:23.652Z,7.68
2022-07-30T19:14:49.092Z,8.48
2022-07-30T19:19:15.113Z,8.52
2022-07-30T19:23:37.172Z,9.02
2022-07-30T19:28:01.584Z,11.13
2022-07-30T19:32:23.634Z,25.00
2022-07-30T19:36:45.912Z,102.68
2022-07-30T19:41:08.673Z,26.83
2022-07-30T19:45:46.646Z,16.50
2022-07-30T19:50:11.678Z,13.52
2022-07-30T19:54:34.351Z,20.08
2022-07-30T19:59:00.374Z,14.73
2022-07-30T20:03:38.823Z,13.68
2022-07-30T20:08:01.412Z,14.50
2022-07-30T20:12:25.012Z,16.02
2022-07-30T20:16:49.233Z,14.90
2022-07-30T20:21:15.316Z,15.38
2022-07-30T20:25:39.293Z,14.40
2022-07-30T20:30:04.533Z,15.60
2022-07-30T20:34:27.552Z,15.98
2022-07-30T20:38:49.792Z,17.00
2022-07-30T20:43:11.918Z,17.52
2022-07-30T20:47:34.937Z,17.95
2022-07-30T20:52:00.651Z,20.38
2022-07-30T20:56:22.893Z,21.13
2022-07-30T21:00:49.392Z,22.27
2022-07-30T21:05:20.067Z,24.65
2022-07-30T21:09:52.034Z,22.60
2022-07-30T21:14:17.740Z,22.58
2022-07-30T21:18:39.852Z,25.52
2022-07-30T21:23:12.412Z,22.48
2022-07-30T21:27:34.512Z,22.33
2022-07-30T21:36:39.073Z,23.40
2022-07-30T21:41:01.802Z,23.20
2022-07-30T21:45:28.362Z,23.02
2022-07-30T21:50:00.355Z,23.08
2022-07-30T21:54:28.779Z,23.90
2022-07-30T21:58:51.912Z,24.27
2022-07-30T22:04:01.207Z,23.95
2022-07-30T22:07:57.392Z,23.25
2022-07-30T22:12:19.452Z,24.42
2022-07-30T22:16:46.192Z,25.23
2022-07-30T22:21:08.813Z,24.17
2022-07-30T22:25:41.743Z,24.83
2022-07-30T22:30:13.751Z,25.55
2022-07-30T22:34:35.930Z,24.45
2022-07-30T22:38:59.279Z,23.60
2022-07-30T22:43:21.431Z,24.23
2022-07-30T22:47:50.741Z,23.05
2022-07-30T22:52:20.087Z,23.88
2022-07-30T22:56:46.338Z,23.75
2022-07-30T23:01:09.050Z,22.40
2022-07-30T23:05:35.211Z,23.00
2022-07-30T23:09:57.370Z,22.00
2022-07-30T23:12:27.407Z,22.95
2022-07-30T23:14:21.151Z,20.77
2022-07-30T23:18:43.490Z,21.08
2022-07-30T23:23:05.330Z,20.75
2022-07-30T23:27:27.670Z,21.23
2022-07-30T23:31:49.530Z,21.38
2022-07-30T23:36:11.809Z,23.02
2022-07-30T23:40:33.930Z,22.27
2022-07-30T23:44:55.750Z,23.05
2022-07-30T23:49:18.698Z,22.55
2022-07-30T23:53:40.889Z,23.48
2022-07-30T23:58:03.551Z,23.08
